sensor_id;sensor_type;location;lat;lon;timestamp;temperature;humidity
64997;SHT31;51545;51.568;6.998;2023-04-01T00:00:29;9.66;99.15
64997;SHT31;51545;51.568;6.998;2023-04-01T00:02:55;9.66;98.96
64997;SHT31;51545;51.568;6.998;2023-04-01T00:05:21;9.63;99.43
64997;SHT31;51545;51.568;6.998;2023-04-01T00:07:49;9.57;99.82
64997;SHT31;51545;51.568;6.998;2023-04-01T00:10:16;9.57;99.90
64997;SHT31;51545;51.568;6.998;2023-04-01T00:12:43;9.57;99.99
64997;SHT31;51545;51.568;6.998;2023-04-01T00:15:10;9.56;99.99
64997;SHT31;51545;51.568;6.998;2023-04-01T00:17:36;9.55;99.99
64997;SHT31;51545;51.568;6.998;2023-04-01T00:20:02;9.53;99.99
64997;SHT31;51545;51.568;6.998;2023-04-01T00:22:28;9.53;99.99
64997;SHT31;51545;51.568;6.998;2023-04-01T00:24:54;9.55;99.99
64997;SHT31;51545;51.568;6.998;2023-04-01T00:27:19;9.53;99.99
64997;SHT31;51545;51.568;6.998;2023-04-01T00:29:45;9.53;99.99
64997;SHT31;51545;51.568;6.998;2023-04-01T00:32:12;9.55;99.99
64997;SHT31;51545;51.568;6.998;2023-04-01T00:34:39;9.57;99.99
64997;SHT31;51545;51.568;6.998;2023-04-01T00:37:05;9.60;99.99
64997;SHT31;51545;51.568;6.998;2023-04-01T00:39:31;9.63;99.99
64997;SHT31;51545;51.568;6.998;2023-04-01T00:41:58;9.57;99.85
64997;SHT31;51545;51.568;6.998;2023-04-01T00:44:25;9.59;99.86
64997;SHT31;51545;51.568;6.998;2023-04-01T00:46:53;9.59;99.47
64997;SHT31;51545;51.568;6.998;2023-04-01T00:49:19;9.63;99.65
64997;SHT31;51545;51.568;6.998;2023-04-01T00:51:49;9.65;99.60
64997;SHT31;51545;51.568;6.998;2023-04-01T00:54:18;9.63;99.58
64997;SHT31;51545;51.568;6.998;2023-04-01T00:56:55;9.60;99.60
64997;SHT31;51545;51.568;6.998;2023-04-01T00:59:26;9.60;99.65
64997;SHT31;51545;51.568;6.998;2023-04-01T01:01:56;9.57;99.65
64997;SHT31;51545;51.568;6.998;2023-04-01T01:04:26;9.59;99.72
64997;SHT31;51545;51.568;6.998;2023-04-01T01:23:37;9.46;99.99
64997;SHT31;51545;51.568;6.998;2023-04-01T01:32:01;9.45;99.99
64997;SHT31;51545;51.568;6.998;2023-04-01T01:34:36;9.42;99.99
64997;SHT31;51545;51.568;6.998;2023-04-01T01:37:15;9.45;99.99
64997;SHT31;51545;51.568;6.998;2023-04-01T01:39:43;9.46;99.99
64997;SHT31;51545;51.568;6.998;2023-04-01T01:42:13;9.49;99.99
64997;SHT31;51545;51.568;6.998;2023-04-01T01:44:43;9.46;99.99
64997;SHT31;51545;51.568;6.998;2023-04-01T01:47:12;9.49;99.99
64997;SHT31;51545;51.568;6.998;2023-04-01T01:49:39;9.46;99.87
64997;SHT31;51545;51.568;6.998;2023-04-01T01:52:07;9.49;99.90
64997;SHT31;51545;51.568;6.998;2023-04-01T01:54:33;9.45;99.63
64997;SHT31;51545;51.568;6.998;2023-04-01T01:57:08;9.50;99.79
64997;SHT31;51545;51.568;6.998;2023-04-01T01:59:36;9.46;99.79
64997;SHT31;51545;51.568;6.998;2023-04-01T02:02:03;9.46;99.86
64997;SHT31;51545;51.568;6.998;2023-04-01T02:04:36;9.46;99.95
64997;SHT31;51545;51.568;6.998;2023-04-01T02:07:07;9.45;99.99
64997;SHT31;51545;51.568;6.998;2023-04-01T02:09:37;9.39;99.99
64997;SHT31;51545;51.568;6.998;2023-04-01T02:12:07;9.38;99.99
64997;SHT31;51545;51.568;6.998;2023-04-01T02:14:41;9.38;99.99
64997;SHT31;51545;51.568;6.998;2023-04-01T02:17:15;9.35;99.99
64997;SHT31;51545;51.568;6.998;2023-04-01T02:19:53;9.38;99.99
64997;SHT31;51545;51.568;6.998;2023-04-01T02:22:28;9.39;99.99
64997;SHT31;51545;51.568;6.998;2023-04-01T02:25:07;9.45;99.99
64997;SHT31;51545;51.568;6.998;2023-04-01T02:27:35;9.43;99.69
64997;SHT31;51545;51.568;6.998;2023-04-01T02:30:01;9.48;99.73
64997;SHT31;51545;51.568;6.998;2023-04-01T02:32:26;9.50;99.79
64997;SHT31;51545;51.568;6.998;2023-04-01T02:34:54;9.48;99.72
64997;SHT31;51545;51.568;6.998;2023-04-01T02:37:20;9.49;99.41
64997;SHT31;51545;51.568;6.998;2023-04-01T02:39:46;9.52;99.28
64997;SHT31;51545;51.568;6.998;2023-04-01T02:42:13;9.50;99.33
64997;SHT31;51545;51.568;6.998;2023-04-01T02:44:39;9.53;99.47
64997;SHT31;51545;51.568;6.998;2023-04-01T02:47:04;9.50;99.53
64997;SHT31;51545;51.568;6.998;2023-04-01T02:49:30;9.46;99.60
64997;SHT31;51545;51.568;6.998;2023-04-01T02:51:55;9.50;99.69
64997;SHT31;51545;51.568;6.998;2023-04-01T02:54:21;9.45;99.99
64997;SHT31;51545;51.568;6.998;2023-04-01T02:56:46;9.45;99.99
64997;SHT31;51545;51.568;6.998;2023-04-01T02:59:12;9.45;99.99
64997;SHT31;51545;51.568;6.998;2023-04-01T03:01:37;9.39;99.99
64997;SHT31;51545;51.568;6.998;2023-04-01T03:04:03;9.35;99.99
64997;SHT31;51545;51.568;6.998;2023-04-01T03:06:29;9.34;99.99
64997;SHT31;51545;51.568;6.998;2023-04-01T03:08:54;9.35;99.99
64997;SHT31;51545;51.568;6.998;2023-04-01T03:11:20;9.35;99.99
64997;SHT31;51545;51.568;6.998;2023-04-01T03:13:46;9.31;99.99
64997;SHT31;51545;51.568;6.998;2023-04-01T03:16:11;9.35;99.99
64997;SHT31;51545;51.568;6.998;2023-04-01T03:18:37;9.29;99.99
64997;SHT31;51545;51.568;6.998;2023-04-01T03:21:19;9.29;99.99
64997;SHT31;51545;51.568;6.998;2023-04-01T03:23:46;9.27;99.99
64997;SHT31;51545;51.568;6.998;2023-04-01T03:26:12;9.31;99.99
64997;SHT31;51545;51.568;6.998;2023-04-01T03:28:38;9.27;99.99
64997;SHT31;51545;51.568;6.998;2023-04-01T03:31:04;9.31;99.99
64997;SHT31;51545;51.568;6.998;2023-04-01T03:33:30;9.27;99.99
64997;SHT31;51545;51.568;6.998;2023-04-01T03:35:56;9.28;99.99
64997;SHT31;51545;51.568;6.998;2023-04-01T03:38:22;9.25;99.99
64997;SHT31;51545;51.568;6.998;2023-04-01T03:40:47;9.29;99.99
64997;SHT31;51545;51.568;6.998;2023-04-01T03:43:12;9.29;99.99
64997;SHT31;51545;51.568;6.998;2023-04-01T03:45:48;9.29;99.99
64997;SHT31;51545;51.568;6.998;2023-04-01T03:48:15;9.29;99.99
64997;SHT31;51545;51.568;6.998;2023-04-01T03:50:42;9.27;99.99
64997;SHT31;51545;51.568;6.998;2023-04-01T03:53:07;9.29;99.99
64997;SHT31;51545;51.568;6.998;2023-04-01T03:55:35;9.32;99.99
64997;SHT31;51545;51.568;6.998;2023-04-01T03:58:01;9.31;99.99
64997;SHT31;51545;51.568;6.998;2023-04-01T04:00:28;9.34;99.99
64997;SHT31;51545;51.568;6.998;2023-04-01T04:02:54;9.32;99.99
64997;SHT31;51545;51.568;6.998;2023-04-01T04:05:21;9.32;99.99
64997;SHT31;51545;51.568;6.998;2023-04-01T04:07:47;9.34;99.99
64997;SHT31;51545;51.568;6.998;2023-04-01T04:10:13;9.36;99.99
64997;SHT31;51545;51.568;6.998;2023-04-01T04:12:38;9.39;99.99
64997;SHT31;51545;51.568;6.998;2023-04-01T04:15:05;9.38;99.99
64997;SHT31;51545;51.568;6.998;2023-04-01T04:17:31;9.38;99.99
64997;SHT31;51545;51.568;6.998;2023-04-01T04:19:56;9.38;99.99
64997;SHT31;51545;51.568;6.998;2023-04-01T04:22:22;9.38;99.99
64997;SHT31;51545;51.568;6.998;2023-04-01T04:24:47;9.42;99.99
64997;SHT31;51545;51.568;6.998;2023-04-01T04:27:13;9.40;99.99
64997;SHT31;51545;51.568;6.998;2023-04-01T04:29:38;9.40;99.99
64997;SHT31;51545;51.568;6.998;2023-04-01T04:32:04;9.39;99.99
64997;SHT31;51545;51.568;6.998;2023-04-01T04:34:30;9.40;99.99
64997;SHT31;51545;51.568;6.998;2023-04-01T04:36:56;9.42;99.99
64997;SHT31;51545;51.568;6.998;2023-04-01T04:39:22;9.38;99.99
64997;SHT31;51545;51.568;6.998;2023-04-01T04:41:47;9.40;99.99
64997;SHT31;51545;51.568;6.998;2023-04-01T04:44:13;9.38;99.99
64997;SHT31;51545;51.568;6.998;2023-04-01T04:46:38;9.39;99.99
64997;SHT31;51545;51.568;6.998;2023-04-01T04:49:04;9.39;99.99
64997;SHT31;51545;51.568;6.998;2023-04-01T04:51:30;9.39;99.99
64997;SHT31;51545;51.568;6.998;2023-04-01T04:53:59;9.39;99.99
64997;SHT31;51545;51.568;6.998;2023-04-01T04:56:25;9.40;99.99
64997;SHT31;51545;51.568;6.998;2023-04-01T04:58:51;9.38;99.99
64997;SHT31;51545;51.568;6.998;2023-04-01T05:01:17;9.39;99.99
64997;SHT31;51545;51.568;6.998;2023-04-01T05:03:43;9.39;99.99
64997;SHT31;51545;51.568;6.998;2023-04-01T05:06:10;9.43;99.99
64997;SHT31;51545;51.568;6.998;2023-04-01T05:08:37;9.40;99.99
64997;SHT31;51545;51.568;6.998;2023-04-01T05:11:06;9.39;99.99
64997;SHT31;51545;51.568;6.998;2023-04-01T05:13:35;9.40;99.99
64997;SHT31;51545;51.568;6.998;2023-04-01T05:16:01;9.39;99.99
64997;SHT31;51545;51.568;6.998;2023-04-01T05:18:27;9.39;99.99
64997;SHT31;51545;51.568;6.998;2023-04-01T05:20:53;9.39;99.99
64997;SHT31;51545;51.568;6.998;2023-04-01T05:23:20;9.43;99.99
64997;SHT31;51545;51.568;6.998;2023-04-01T05:25:50;9.45;99.99
64997;SHT31;51545;51.568;6.998;2023-04-01T05:28:18;9.42;99.99
64997;SHT31;51545;51.568;6.998;2023-04-01T05:30:44;9.40;99.99
64997;SHT31;51545;51.568;6.998;2023-04-01T05:33:10;9.42;99.99
64997;SHT31;51545;51.568;6.998;2023-04-01T05:35:36;9.40;99.99
64997;SHT31;51545;51.568;6.998;2023-04-01T05:38:02;9.43;99.99
64997;SHT31;51545;51.568;6.998;2023-04-01T05:40:29;9.45;99.99
64997;SHT31;51545;51.568;6.998;2023-04-01T05:42:54;9.49;99.99
64997;SHT31;51545;51.568;6.998;2023-04-01T05:45:20;9.42;99.99
64997;SHT31;51545;51.568;6.998;2023-04-01T05:47:46;9.39;99.99
64997;SHT31;51545;51.568;6.998;2023-04-01T05:50:11;9.40;99.99
64997;SHT31;51545;51.568;6.998;2023-04-01T05:52:37;9.40;99.99
64997;SHT31;51545;51.568;6.998;2023-04-01T05:55:03;9.38;99.99
64997;SHT31;51545;51.568;6.998;2023-04-01T05:57:29;9.43;99.99
64997;SHT31;51545;51.568;6.998;2023-04-01T05:59:55;9.39;99.99
64997;SHT31;51545;51.568;6.998;2023-04-01T06:02:20;9.43;99.99
64997;SHT31;51545;51.568;6.998;2023-04-01T06:04:46;9.42;99.99
64997;SHT31;51545;51.568;6.998;2023-04-01T06:07:16;9.43;99.99
64997;SHT31;51545;51.568;6.998;2023-04-01T06:09:43;9.40;99.99
64997;SHT31;51545;51.568;6.998;2023-04-01T06:25:59;9.35;99.99
64997;SHT31;51545;51.568;6.998;2023-04-01T06:33:55;9.42;99.99
64997;SHT31;51545;51.568;6.998;2023-04-01T06:36:34;9.39;99.99
64997;SHT31;51545;51.568;6.998;2023-04-01T06:39:16;9.39;99.99
64997;SHT31;51545;51.568;6.998;2023-04-01T06:49:53;9.40;99.99
64997;SHT31;51545;51.568;6.998;2023-04-01T06:55:22;9.42;99.99
64997;SHT31;51545;51.568;6.998;2023-04-01T06:57:53;9.39;99.99
64997;SHT31;51545;51.568;6.998;2023-04-01T07:00:28;9.46;99.99
64997;SHT31;51545;51.568;6.998;2023-04-01T07:03:20;9.43;99.99
64997;SHT31;51545;51.568;6.998;2023-04-01T07:05:47;9.43;99.99
64997;SHT31;51545;51.568;6.998;2023-04-01T07:08:18;9.45;99.99
64997;SHT31;51545;51.568;6.998;2023-04-01T07:11:02;9.48;99.99
64997;SHT31;51545;51.568;6.998;2023-04-01T07:13:34;9.48;99.99
64997;SHT31;51545;51.568;6.998;2023-04-01T07:21:45;9.50;99.99
64997;SHT31;51545;51.568;6.998;2023-04-01T07:24:15;9.50;99.99
64997;SHT31;51545;51.568;6.998;2023-04-01T07:26:46;9.50;99.99
64997;SHT31;51545;51.568;6.998;2023-04-01T07:29:13;9.53;99.99
64997;SHT31;51545;51.568;6.998;2023-04-01T07:32:25;9.56;99.99
64997;SHT31;51545;51.568;6.998;2023-04-01T07:35:02;9.53;99.99
64997;SHT31;51545;51.568;6.998;2023-04-01T07:46:46;9.71;99.99
64997;SHT31;51545;51.568;6.998;2023-04-01T07:52:06;9.60;99.99
64997;SHT31;51545;51.568;6.998;2023-04-01T07:54:53;9.73;99.99
64997;SHT31;51545;51.568;6.998;2023-04-01T07:57:35;9.77;99.99
64997;SHT31;51545;51.568;6.998;2023-04-01T08:00:20;9.77;99.99
64997;SHT31;51545;51.568;6.998;2023-04-01T08:06:00;9.89;99.99
64997;SHT31;51545;51.568;6.998;2023-04-01T08:11:53;9.94;99.99
64997;SHT31;51545;51.568;6.998;2023-04-01T08:22:41;9.65;99.99
64997;SHT31;51545;51.568;6.998;2023-04-01T08:25:13;9.65;99.99
64997;SHT31;51545;51.568;6.998;2023-04-01T08:27:46;9.71;99.99
64997;SHT31;51545;51.568;6.998;2023-04-01T08:32:56;9.74;99.99
64997;SHT31;51545;51.568;6.998;2023-04-01T08:39:24;9.74;99.99
64997;SHT31;51545;51.568;6.998;2023-04-01T08:47:19;9.83;99.99
64997;SHT31;51545;51.568;6.998;2023-04-01T08:55:37;9.86;99.99
64997;SHT31;51545;51.568;6.998;2023-04-01T08:58:16;9.84;99.99
64997;SHT31;51545;51.568;6.998;2023-04-01T09:01:10;9.82;99.99
64997;SHT31;51545;51.568;6.998;2023-04-01T09:07:07;9.94;99.99
64997;SHT31;51545;51.568;6.998;2023-04-01T09:09:48;9.93;99.99
64997;SHT31;51545;51.568;6.998;2023-04-01T09:12:31;9.93;99.99
64997;SHT31;51545;51.568;6.998;2023-04-01T09:18:08;10.01;99.99
64997;SHT31;51545;51.568;6.998;2023-04-01T09:23:35;10.10;99.99
64997;SHT31;51545;51.568;6.998;2023-04-01T09:34:38;10.17;99.99
64997;SHT31;51545;51.568;6.998;2023-04-01T09:37:21;10.17;99.99
64997;SHT31;51545;51.568;6.998;2023-04-01T10:16:37;10.33;99.99
64997;SHT31;51545;51.568;6.998;2023-04-01T10:44:19;10.43;99.99
64997;SHT31;51545;51.568;6.998;2023-04-01T10:47:19;10.45;99.99
64997;SHT31;51545;51.568;6.998;2023-04-01T10:58:27;10.36;99.99
64997;SHT31;51545;51.568;6.998;2023-04-01T11:10:28;10.49;99.99
64997;SHT31;51545;51.568;6.998;2023-04-01T11:32:06;10.77;99.99
64997;SHT31;51545;51.568;6.998;2023-04-01T11:37:33;10.73;99.99
64997;SHT31;51545;51.568;6.998;2023-04-01T11:42:55;10.59;99.99
64997;SHT31;51545;51.568;6.998;2023-04-01T11:48:14;10.66;99.99
64997;SHT31;51545;51.568;6.998;2023-04-01T12:10:18;10.55;99.99
64997;SHT31;51545;51.568;6.998;2023-04-01T12:21:36;10.77;99.99
64997;SHT31;51545;51.568;6.998;2023-04-01T12:35:29;10.80;99.99
64997;SHT31;51545;51.568;6.998;2023-04-01T13:08:49;10.76;99.96
64997;SHT31;51545;51.568;6.998;2023-04-01T13:16:39;10.70;99.99
64997;SHT31;51545;51.568;6.998;2023-04-01T13:21:41;10.73;99.99
64997;SHT31;51545;51.568;6.998;2023-04-01T13:24:18;10.60;99.99
64997;SHT31;51545;51.568;6.998;2023-04-01T13:29:37;10.62;99.99
64997;SHT31;51545;51.568;6.998;2023-04-01T13:46:38;10.75;99.99
64997;SHT31;51545;51.568;6.998;2023-04-01T13:54:38;10.70;99.99
64997;SHT31;51545;51.568;6.998;2023-04-01T14:06:28;10.76;99.99
64997;SHT31;51545;51.568;6.998;2023-04-01T14:12:19;10.84;99.99
64997;SHT31;51545;51.568;6.998;2023-04-01T14:21:03;10.84;99.99
64997;SHT31;51545;51.568;6.998;2023-04-01T14:31:53;10.84;99.99
64997;SHT31;51545;51.568;6.998;2023-04-01T14:43:20;10.90;99.99
64997;SHT31;51545;51.568;6.998;2023-04-01T14:51:34;11.01;99.89
64997;SHT31;51545;51.568;6.998;2023-04-01T14:54:14;11.05;99.62
64997;SHT31;51545;51.568;6.998;2023-04-01T14:56:51;11.23;99.65
64997;SHT31;51545;51.568;6.998;2023-04-01T14:59:33;11.18;99.46
64997;SHT31;51545;51.568;6.998;2023-04-01T15:18:17;11.01;99.05
64997;SHT31;51545;51.568;6.998;2023-04-01T15:27:12;11.05;99.26
64997;SHT31;51545;51.568;6.998;2023-04-01T15:32:12;11.04;99.33
64997;SHT31;51545;51.568;6.998;2023-04-01T15:34:50;11.01;99.43
64997;SHT31;51545;51.568;6.998;2023-04-01T15:37:39;11.03;99.56
64997;SHT31;51545;51.568;6.998;2023-04-01T15:40:17;11.01;99.86
64997;SHT31;51545;51.568;6.998;2023-04-01T15:43:12;10.94;99.99
64997;SHT31;51545;51.568;6.998;2023-04-01T15:48:46;10.76;99.99
64997;SHT31;51545;51.568;6.998;2023-04-01T15:54:27;10.73;99.99
64997;SHT31;51545;51.568;6.998;2023-04-01T16:17:36;10.49;99.99
64997;SHT31;51545;51.568;6.998;2023-04-01T16:20:01;10.52;99.99
64997;SHT31;51545;51.568;6.998;2023-04-01T16:22:58;10.57;99.99
64997;SHT31;51545;51.568;6.998;2023-04-01T16:30:55;10.55;99.99
64997;SHT31;51545;51.568;6.998;2023-04-01T16:38:50;10.55;99.99
64997;SHT31;51545;51.568;6.998;2023-04-01T16:41:31;10.53;99.99
64997;SHT31;51545;51.568;6.998;2023-04-01T16:49:37;10.50;99.99
64997;SHT31;51545;51.568;6.998;2023-04-01T16:57:18;10.56;99.99
64997;SHT31;51545;51.568;6.998;2023-04-01T17:04:40;10.55;99.99
64997;SHT31;51545;51.568;6.998;2023-04-01T17:19:42;10.49;99.99
64997;SHT31;51545;51.568;6.998;2023-04-01T17:22:04;10.49;99.99
64997;SHT31;51545;51.568;6.998;2023-04-01T17:27:40;10.43;99.99
64997;SHT31;51545;51.568;6.998;2023-04-01T17:36:03;10.40;99.99
64997;SHT31;51545;51.568;6.998;2023-04-01T17:41:32;10.38;99.99
64997;SHT31;51545;51.568;6.998;2023-04-01T17:44:11;10.39;99.99
64997;SHT31;51545;51.568;6.998;2023-04-01T17:47:00;10.40;99.99
64997;SHT31;51545;51.568;6.998;2023-04-01T17:52:38;10.40;99.99
64997;SHT31;51545;51.568;6.998;2023-04-01T18:01:03;10.49;99.99
64997;SHT31;51545;51.568;6.998;2023-04-01T18:06:09;10.43;99.99
64997;SHT31;51545;51.568;6.998;2023-04-01T18:08:58;10.43;99.99
64997;SHT31;51545;51.568;6.998;2023-04-01T18:21:55;10.55;99.99
64997;SHT31;51545;51.568;6.998;2023-04-01T18:24:33;10.57;99.99
64997;SHT31;51545;51.568;6.998;2023-04-01T18:29:48;10.59;99.99
64997;SHT31;51545;51.568;6.998;2023-04-01T18:32:22;10.62;99.99
64997;SHT31;51545;51.568;6.998;2023-04-01T18:37:42;10.65;99.99
64997;SHT31;51545;51.568;6.998;2023-04-01T18:40:12;10.65;99.99
64997;SHT31;51545;51.568;6.998;2023-04-01T18:42:46;10.62;99.99
64997;SHT31;51545;51.568;6.998;2023-04-01T18:51:02;10.57;99.99
64997;SHT31;51545;51.568;6.998;2023-04-01T18:53:40;10.62;99.99
64997;SHT31;51545;51.568;6.998;2023-04-01T18:56:54;10.53;99.99
64997;SHT31;51545;51.568;6.998;2023-04-01T19:04:37;10.43;99.99
64997;SHT31;51545;51.568;6.998;2023-04-01T19:12:52;10.31;99.99
64997;SHT31;51545;51.568;6.998;2023-04-01T19:17:54;10.28;99.99
64997;SHT31;51545;51.568;6.998;2023-04-01T19:20:30;10.26;99.99
64997;SHT31;51545;51.568;6.998;2023-04-01T19:30:58;10.11;99.99
64997;SHT31;51545;51.568;6.998;2023-04-01T19:42:03;10.07;99.99
64997;SHT31;51545;51.568;6.998;2023-04-01T19:49:53;9.90;99.99
64997;SHT31;51545;51.568;6.998;2023-04-01T19:52:42;9.89;99.99
64997;SHT31;51545;51.568;6.998;2023-04-01T20:00:48;9.71;99.93
64997;SHT31;51545;51.568;6.998;2023-04-01T20:08:38;9.62;99.95
64997;SHT31;51545;51.568;6.998;2023-04-01T20:19:27;9.42;99.51
64997;SHT31;51545;51.568;6.998;2023-04-01T20:22:08;9.43;99.74
64997;SHT31;51545;51.568;6.998;2023-04-01T20:24:47;9.45;99.71
64997;SHT31;51545;51.568;6.998;2023-04-01T20:38:10;9.24;99.36
64997;SHT31;51545;51.568;6.998;2023-04-01T20:40:51;9.22;99.36
64997;SHT31;51545;51.568;6.998;2023-04-01T20:46:00;9.11;99.17
64997;SHT31;51545;51.568;6.998;2023-04-01T20:48:58;9.12;99.19
64997;SHT31;51545;51.568;6.998;2023-04-01T20:51:25;9.08;99.22
64997;SHT31;51545;51.568;6.998;2023-04-01T20:53:59;9.05;99.29
64997;SHT31;51545;51.568;6.998;2023-04-01T21:02:25;8.92;99.26
64997;SHT31;51545;51.568;6.998;2023-04-01T21:13:33;8.79;99.76
64997;SHT31;51545;51.568;6.998;2023-04-01T21:19:01;8.76;99.83
64997;SHT31;51545;51.568;6.998;2023-04-01T21:27:42;8.66;99.60
64997;SHT31;51545;51.568;6.998;2023-04-01T21:44:20;8.44;99.31
64997;SHT31;51545;51.568;6.998;2023-04-01T21:57:51;8.39;99.32
64997;SHT31;51545;51.568;6.998;2023-04-01T22:00:25;8.34;99.44
64997;SHT31;51545;51.568;6.998;2023-04-01T22:03:19;8.28;99.15
64997;SHT31;51545;51.568;6.998;2023-04-01T22:14:20;8.11;98.98
64997;SHT31;51545;51.568;6.998;2023-04-01T22:16:57;8.06;98.94
64997;SHT31;51545;51.568;6.998;2023-04-01T22:19:26;8.06;99.00
64997;SHT31;51545;51.568;6.998;2023-04-01T22:22:21;8.01;99.04
64997;SHT31;51545;51.568;6.998;2023-04-01T22:25:14;8.00;99.03
64997;SHT31;51545;51.568;6.998;2023-04-01T22:27:49;7.94;98.86
64997;SHT31;51545;51.568;6.998;2023-04-01T22:30:24;7.90;98.57
64997;SHT31;51545;51.568;6.998;2023-04-01T22:35:53;7.72;98.05
64997;SHT31;51545;51.568;6.998;2023-04-01T22:38:29;7.62;98.43
64997;SHT31;51545;51.568;6.998;2023-04-01T22:43:51;7.67;98.43
64997;SHT31;51545;51.568;6.998;2023-04-01T22:51:57;7.67;98.80
64997;SHT31;51545;51.568;6.998;2023-04-01T23:02:25;7.67;98.82
64997;SHT31;51545;51.568;6.998;2023-04-01T23:05:02;7.56;98.99
64997;SHT31;51545;51.568;6.998;2023-04-01T23:07:48;7.63;99.17
64997;SHT31;51545;51.568;6.998;2023-04-01T23:10:39;7.56;99.33
64997;SHT31;51545;51.568;6.998;2023-04-01T23:13:14;7.49;99.42
64997;SHT31;51545;51.568;6.998;2023-04-01T23:15:44;7.54;99.72
64997;SHT31;51545;51.568;6.998;2023-04-01T23:29:15;7.34;99.38
64997;SHT31;51545;51.568;6.998;2023-04-01T23:31:43;7.13;99.08
64997;SHT31;51545;51.568;6.998;2023-04-01T23:36:39;7.18;99.09
64997;SHT31;51545;51.568;6.998;2023-04-01T23:39:20;7.24;99.37
64997;SHT31;51545;51.568;6.998;2023-04-01T23:41:53;7.27;99.31
64997;SHT31;51545;51.568;6.998;2023-04-01T23:44:21;7.28;99.52
64997;SHT31;51545;51.568;6.998;2023-04-01T23:46:50;7.28;99.46
64997;SHT31;51545;51.568;6.998;2023-04-01T23:54:45;7.16;99.69
64997;SHT31;51545;51.568;6.998;2023-04-01T23:57:29;7.06;99.35
